createdAt,value
2019-05-01T00:00:23.771Z,29.87
2019-05-01T00:03:11.168Z,29.20
2019-05-01T00:05:42.558Z,27.57
2019-05-01T00:08:12.258Z,29.80
2019-05-01T00:10:41.415Z,29.53
2019-05-01T00:13:10.602Z,29.23
2019-05-01T00:15:41.220Z,29.43
2019-05-01T00:18:10.155Z,30.77
2019-05-01T00:20:39.363Z,30.50
2019-05-01T00:23:08.271Z,31.43
2019-05-01T00:25:37.515Z,31.03
2019-05-01T00:28:07.592Z,29.80
2019-05-01T00:30:36.994Z,29.90
2019-05-01T00:33:05.930Z,30.60
2019-05-01T00:35:35.001Z,30.17
2019-05-01T00:38:04.029Z,29.70
2019-05-01T00:40:32.886Z,30.37
2019-05-01T00:43:01.943Z,31.57
2019-05-01T00:45:30.967Z,28.70
2019-05-01T00:47:59.959Z,28.23
2019-05-01T00:50:28.954Z,30.47
2019-05-01T00:52:58.270Z,32.40
2019-05-01T00:55:58.944Z,31.17
2019-05-01T00:58:49.889Z,29.27
2019-05-01T01:01:56.019Z,28.83
2019-05-01T01:04:25.081Z,28.57
2019-05-01T01:06:53.987Z,30.60
2019-05-01T01:09:23.243Z,28.90
2019-05-01T01:11:52.242Z,29.20
2019-05-01T01:14:21.123Z,29.07
2019-05-01T01:16:50.094Z,29.93
2019-05-01T01:19:19.482Z,31.07
2019-05-01T01:21:48.367Z,30.40
2019-05-01T01:24:17.540Z,31.53
2019-05-01T01:26:47.050Z,30.20
2019-05-01T01:29:15.963Z,30.60
2019-05-01T01:31:45.050Z,30.97
2019-05-01T01:34:14.403Z,30.80
2019-05-01T01:36:43.667Z,31.43
2019-05-01T01:39:12.521Z,29.30
2019-05-01T01:41:41.998Z,32.03
2019-05-01T01:44:36.620Z,31.93
2019-05-01T01:47:05.830Z,31.47
2019-05-01T01:49:34.743Z,31.23
2019-05-01T01:52:04.006Z,30.73
2019-05-01T01:54:33.139Z,31.53
2019-05-01T01:57:02.322Z,30.87
2019-05-01T01:59:31.824Z,33.07
2019-05-01T02:02:10.130Z,31.33
2019-05-01T02:04:51.227Z,32.27
2019-05-01T02:07:20.446Z,32.50
2019-05-01T02:09:49.748Z,32.33
2019-05-01T02:12:19.339Z,31.93
2019-05-01T02:14:48.555Z,33.27
2019-05-01T02:17:17.543Z,32.73
2019-05-01T02:19:46.546Z,32.47
2019-05-01T02:22:15.461Z,33.13
2019-05-01T02:24:44.354Z,30.43
2019-05-01T02:27:18.936Z,32.40
2019-05-01T02:29:52.334Z,32.33
2019-05-01T02:32:23.398Z,32.77
2019-05-01T02:34:54.497Z,32.73
2019-05-01T02:37:25.177Z,32.10
2019-05-01T02:39:56.113Z,30.77
2019-05-01T02:42:28.065Z,33.67
2019-05-01T02:44:59.211Z,32.73
2019-05-01T02:47:32.980Z,32.07
2019-05-01T02:50:12.028Z,31.63
2019-05-01T02:52:43.182Z,30.37
2019-05-01T02:55:28.503Z,29.60
2019-05-01T02:57:57.843Z,32.17
2019-05-01T03:00:27.390Z,32.07
2019-05-01T03:02:56.395Z,34.20
2019-05-01T03:05:25.552Z,32.83
2019-05-01T03:07:55.163Z,32.30
2019-05-01T03:10:24.513Z,32.07
2019-05-01T03:12:54.138Z,32.97
2019-05-01T03:15:24.331Z,33.80
2019-05-01T03:18:24.986Z,31.37
2019-05-01T03:21:01.778Z,31.97
2019-05-01T03:24:01.820Z,33.80
2019-05-01T03:26:31.635Z,33.13
2019-05-01T03:29:00.623Z,32.23
2019-05-01T03:31:29.681Z,32.60
2019-05-01T03:33:58.943Z,34.40
2019-05-01T03:36:28.177Z,34.67
2019-05-01T03:38:57.867Z,37.53
2019-05-01T03:41:27.467Z,37.53
2019-05-01T03:43:56.748Z,37.10
2019-05-01T03:46:26.610Z,38.57
2019-05-01T03:48:55.630Z,37.70
2019-05-01T03:51:24.723Z,38.87
2019-05-01T03:53:54.475Z,39.87
2019-05-01T03:56:23.630Z,38.20
2019-05-01T03:58:52.986Z,39.33
2019-05-01T04:01:28.540Z,37.83
2019-05-01T04:04:01.165Z,37.87
2019-05-01T04:06:31.160Z,40.43
2019-05-01T04:09:00.480Z,38.27
2019-05-01T04:11:29.927Z,39.73
2019-05-01T04:13:59.334Z,39.83
2019-05-01T04:16:28.991Z,38.63
2019-05-01T04:18:58.196Z,39.43
2019-05-01T04:21:31.543Z,42.87
2019-05-01T04:24:01.052Z,38.87
2019-05-01T04:26:30.702Z,39.43
2019-05-01T04:29:25.478Z,38.53
2019-05-01T04:32:16.504Z,40.67
2019-05-01T04:34:52.439Z,46.83
2019-05-01T04:37:22.226Z,42.80
2019-05-01T04:39:51.636Z,40.63
2019-05-01T04:42:20.659Z,42.03
2019-05-01T04:44:49.666Z,38.40
2019-05-01T04:47:18.649Z,40.23
2019-05-01T04:49:47.806Z,40.67
2019-05-01T04:52:16.810Z,41.90
2019-05-01T04:54:45.901Z,42.07
2019-05-01T04:57:15.054Z,42.40
2019-05-01T04:59:44.377Z,39.40
2019-05-01T05:02:15.681Z,41.70
2019-05-01T05:04:44.624Z,40.97
2019-05-01T05:07:13.566Z,41.87
2019-05-01T05:09:44.018Z,44.63
2019-05-01T05:12:44.974Z,68.70
2019-05-01T05:15:23.171Z,55.67
2019-05-01T05:17:52.450Z,56.77
2019-05-01T05:20:21.702Z,56.23
2019-05-01T05:22:50.788Z,55.43
2019-05-01T05:25:19.887Z,57.93
2019-05-01T05:27:50.510Z,55.57
2019-05-01T05:30:19.958Z,55.43
2019-05-01T05:32:52.043Z,55.70
2019-05-01T05:35:22.904Z,55.47
2019-05-01T05:38:12.304Z,56.23
2019-05-01T05:40:43.166Z,56.37
2019-05-01T05:43:12.243Z,56.60
2019-05-01T05:45:41.366Z,71.67
2019-05-01T05:48:10.238Z,59.87
2019-05-01T05:50:50.374Z,59.43
2019-05-01T05:53:23.834Z,59.10
2019-05-01T05:55:56.527Z,61.20
2019-05-01T05:58:42.540Z,57.87
2019-05-01T06:01:41.566Z,59.00
2019-05-01T06:04:30.460Z,59.00
2019-05-01T06:07:20.239Z,59.97
2019-05-01T06:10:09.113Z,61.03
2019-05-01T06:13:05.331Z,59.43
2019-05-01T06:15:49.073Z,60.43
2019-05-01T06:18:34.835Z,60.43
2019-05-01T06:21:13.035Z,61.57
2019-05-01T06:23:56.952Z,60.40
2019-05-01T06:26:31.917Z,60.53
2019-05-01T06:29:00.684Z,63.53
2019-05-01T06:31:30.069Z,61.80
2019-05-01T06:33:59.607Z,62.87
2019-05-01T06:36:28.658Z,63.23
2019-05-01T06:38:57.856Z,60.33
2019-05-01T06:41:33.845Z,63.67
2019-05-01T06:44:13.843Z,64.10
2019-05-01T06:46:49.394Z,76.77
2019-05-01T06:49:41.086Z,69.37
2019-05-01T06:52:11.318Z,65.33
2019-05-01T06:54:40.851Z,62.80
2019-05-01T06:57:10.191Z,63.80
2019-05-01T06:59:40.661Z,64.90
2019-05-01T07:02:15.762Z,67.10
2019-05-01T07:04:46.174Z,65.43
2019-05-01T07:07:24.970Z,65.50
2019-05-01T07:09:49.261Z,63.17
2019-05-01T07:12:23.833Z,65.03
2019-05-01T07:14:52.150Z,65.47
2019-05-01T07:17:21.909Z,65.63
2019-05-01T07:20:00.651Z,65.30
2019-05-01T07:22:30.030Z,64.83
2019-05-01T07:25:04.184Z,67.60
2019-05-01T07:27:30.761Z,66.40
2019-05-01T07:30:05.219Z,66.80
2019-05-01T07:32:36.508Z,65.03
2019-05-01T07:35:05.062Z,68.40
2019-05-01T07:37:34.274Z,65.93
2019-05-01T07:40:03.802Z,70.30
2019-05-01T07:42:35.216Z,69.13
2019-05-01T07:45:23.196Z,68.83
2019-05-01T07:47:52.353Z,70.20
2019-05-01T07:50:24.272Z,73.23
2019-05-01T07:52:54.007Z,71.97
2019-05-01T07:55:38.511Z,70.23
2019-05-01T07:58:10.345Z,70.33
2019-05-01T08:00:49.742Z,70.00
2019-05-01T08:03:18.827Z,69.50
2019-05-01T08:05:47.811Z,69.27
2019-05-01T08:08:16.862Z,81.07
2019-05-01T08:10:45.938Z,73.70
2019-05-01T08:13:15.222Z,70.30
2019-05-01T08:15:44.150Z,72.70
2019-05-01T08:18:24.091Z,69.87
2019-05-01T08:20:57.079Z,73.57
2019-05-01T08:23:26.046Z,72.47
2019-05-01T08:25:54.870Z,68.70
2019-05-01T08:28:32.058Z,69.97
2019-05-01T08:31:12.065Z,71.13
2019-05-01T08:33:58.079Z,73.37
2019-05-01T08:36:27.049Z,76.50
2019-05-01T08:38:56.158Z,79.03
2019-05-01T08:41:27.003Z,75.33
2019-05-01T08:43:56.003Z,85.43
2019-05-01T08:46:46.956Z,79.70
2019-05-01T08:49:20.329Z,79.67
2019-05-01T08:51:49.251Z,82.67
2019-05-01T08:54:18.230Z,77.60
2019-05-01T08:56:47.250Z,79.43
2019-05-01T08:59:19.385Z,81.43
2019-05-01T09:01:50.607Z,81.63
2019-05-01T09:04:18.875Z,77.20
2019-05-01T09:06:47.791Z,81.73
2019-05-01T09:09:16.703Z,80.00
2019-05-01T09:11:47.355Z,81.90
2019-05-01T09:14:16.255Z,81.47
2019-05-01T09:16:45.233Z,78.13
2019-05-01T09:19:14.134Z,83.07
2019-05-01T09:21:42.971Z,76.57
2019-05-01T09:24:11.869Z,76.60
2019-05-01T09:26:58.838Z,77.03
2019-05-01T09:29:34.213Z,76.40
2019-05-01T09:32:05.014Z,75.17
2019-05-01T09:34:34.862Z,73.57
2019-05-01T09:37:03.850Z,73.53
2019-05-01T09:39:33.609Z,73.73
2019-05-01T09:42:02.619Z,73.50
2019-05-01T09:44:32.551Z,71.83
2019-05-01T09:47:01.518Z,73.30
2019-05-01T09:49:30.702Z,70.77
2019-05-01T09:52:11.135Z,71.73
2019-05-01T09:54:47.919Z,71.00
2019-05-01T09:57:16.950Z,76.00
2019-05-01T09:59:45.792Z,75.53
2019-05-01T10:02:14.803Z,73.83
2019-05-01T10:04:43.673Z,76.03
2019-05-01T10:07:12.647Z,74.10
2019-05-01T10:09:41.599Z,74.50
2019-05-01T10:12:12.096Z,75.90
2019-05-01T10:14:41.374Z,71.60
2019-05-01T10:17:13.303Z,69.17
2019-05-01T10:19:41.002Z,71.37
2019-05-01T10:22:10.046Z,70.97
2019-05-01T10:24:39.391Z,71.00
2019-05-01T10:27:11.086Z,69.83
2019-05-01T10:30:09.049Z,71.47
2019-05-01T10:32:42.537Z,70.73
2019-05-01T10:35:42.500Z,72.10
2019-05-01T10:38:04.718Z,68.70
2019-05-01T10:40:35.849Z,70.30
2019-05-01T10:43:04.928Z,68.40
2019-05-01T10:45:33.911Z,70.83
2019-05-01T10:48:02.950Z,65.97
2019-05-01T10:50:31.878Z,71.03
2019-05-01T10:53:00.810Z,69.20
2019-05-01T10:55:29.727Z,71.70
2019-05-01T10:57:59.049Z,69.47
2019-05-01T11:00:27.980Z,68.23
2019-05-01T11:02:57.320Z,68.37
2019-05-01T11:05:26.491Z,66.60
2019-05-01T11:07:55.626Z,66.10
2019-05-01T11:10:24.504Z,64.47
2019-05-01T11:12:53.407Z,61.33
2019-05-01T11:15:22.296Z,65.03
2019-05-01T11:17:51.193Z,62.87
2019-05-01T11:20:20.148Z,67.27
2019-05-01T11:22:49.213Z,65.27
2019-05-01T11:25:19.737Z,62.30
2019-05-01T11:27:48.644Z,63.10
2019-05-01T11:30:18.226Z,67.25
2019-05-01T11:33:02.072Z,63.65
2019-05-01T11:35:50.173Z,64.17
2019-05-01T11:38:39.754Z,64.70
2019-05-01T11:41:16.706Z,63.67
2019-05-01T11:43:45.814Z,61.00
2019-05-01T11:46:14.867Z,65.03
2019-05-01T11:48:44.623Z,62.87
2019-05-01T11:51:13.813Z,61.23
2019-05-01T11:53:42.738Z,59.83
2019-05-01T11:56:12.938Z,56.95
2019-05-01T11:58:41.918Z,59.53
2019-05-01T12:01:12.582Z,61.08
2019-05-01T12:03:41.510Z,58.63
2019-05-01T12:06:22.308Z,57.73
2019-05-01T12:08:41.155Z,60.88
2019-05-01T12:11:11.433Z,55.50
2019-05-01T12:13:43.852Z,57.97
2019-05-01T12:16:18.297Z,57.53
2019-05-01T12:18:47.307Z,57.38
2019-05-01T12:21:16.352Z,56.73
2019-05-01T12:23:45.433Z,57.03
2019-05-01T12:26:14.373Z,60.05
2019-05-01T12:28:43.322Z,53.98
2019-05-01T12:31:12.239Z,54.93
2019-05-01T12:33:41.470Z,53.73
2019-05-01T12:36:10.566Z,54.18
2019-05-01T12:38:39.900Z,56.37
2019-05-01T12:41:39.930Z,53.50
2019-05-01T12:44:08.898Z,54.60
2019-05-01T12:46:56.893Z,62.15
2019-05-01T12:49:26.011Z,58.68
2019-05-01T12:52:09.877Z,56.63
2019-05-01T12:54:37.015Z,59.88
2019-05-01T12:57:06.002Z,59.00
2019-05-01T12:59:35.019Z,53.13
2019-05-01T13:02:04.059Z,54.38
2019-05-01T13:04:33.003Z,56.35
2019-05-01T13:07:02.436Z,58.83
2019-05-01T13:09:31.413Z,57.10
2019-05-01T13:12:00.391Z,56.60
2019-05-01T13:14:29.481Z,58.33
2019-05-01T13:16:58.322Z,60.85
2019-05-01T13:19:27.414Z,54.42
2019-05-01T13:21:56.453Z,57.55
2019-05-01T13:24:25.383Z,58.90
2019-05-01T13:27:00.720Z,57.40
2019-05-01T13:29:40.306Z,54.10
2019-05-01T13:32:46.764Z,56.48
2019-05-01T13:35:15.987Z,53.17
2019-05-01T13:37:45.017Z,56.02
2019-05-01T13:40:14.776Z,54.77
2019-05-01T13:42:43.675Z,54.30
2019-05-01T13:45:12.958Z,53.43
2019-05-01T13:47:41.961Z,55.93
2019-05-01T13:50:11.166Z,52.60
2019-05-01T13:52:40.074Z,56.53
2019-05-01T13:55:09.385Z,55.97
2019-05-01T13:57:38.182Z,57.83
2019-05-01T14:00:08.499Z,55.57
2019-05-01T14:02:37.614Z,55.93
2019-05-01T14:05:06.873Z,57.93
2019-05-01T14:07:35.678Z,56.00
2019-05-01T14:10:06.183Z,56.77
2019-05-01T14:12:35.130Z,58.63
2019-05-01T14:15:04.744Z,57.80
2019-05-01T14:17:33.666Z,58.23
2019-05-01T14:20:09.619Z,57.50
2019-05-01T14:22:57.914Z,60.13
2019-05-01T14:25:28.454Z,54.50
2019-05-01T14:27:57.283Z,55.53
2019-05-01T14:30:26.147Z,57.83
2019-05-01T14:32:55.361Z,54.73
2019-05-01T14:35:24.337Z,57.07
2019-05-01T14:37:53.365Z,55.73
2019-05-01T14:40:22.399Z,56.63
2019-05-01T14:42:51.380Z,53.03
2019-05-01T14:45:20.460Z,52.27
2019-05-01T14:47:49.344Z,54.73
2019-05-01T14:50:18.459Z,54.23
2019-05-01T14:52:47.347Z,54.30
2019-05-01T14:55:16.378Z,55.27
2019-05-01T14:57:45.344Z,55.77
2019-05-01T15:00:15.571Z,55.60
2019-05-01T15:02:44.670Z,54.27
2019-05-01T15:05:13.685Z,53.03
2019-05-01T15:07:43.993Z,54.80
2019-05-01T15:10:13.688Z,56.27
2019-05-01T15:12:44.352Z,54.53
2019-05-01T15:15:35.439Z,53.87
2019-05-01T15:18:10.430Z,51.03
2019-05-01T15:20:39.280Z,52.13
2019-05-01T15:23:08.134Z,54.10
2019-05-01T15:25:37.151Z,54.60
2019-05-01T15:28:06.114Z,54.57
2019-05-01T15:30:35.134Z,54.23
2019-05-01T15:33:04.170Z,54.33
2019-05-01T15:35:33.110Z,53.03
2019-05-01T15:38:02.095Z,56.73
2019-05-01T15:40:36.820Z,53.33
2019-05-01T15:43:25.078Z,49.47
2019-05-01T15:45:54.054Z,51.03
2019-05-01T15:48:23.026Z,50.73
2019-05-01T15:50:51.908Z,51.60
2019-05-01T15:53:20.886Z,54.57
2019-05-01T15:55:49.895Z,57.83
2019-05-01T15:58:18.883Z,54.67
2019-05-01T16:00:47.885Z,53.23
2019-05-01T16:03:16.814Z,56.07
2019-05-01T16:05:45.667Z,53.70
2019-05-01T16:08:14.663Z,55.73
2019-05-01T16:10:51.425Z,54.97
2019-05-01T16:13:20.300Z,53.07
2019-05-01T16:15:49.201Z,54.10
2019-05-01T16:18:18.091Z,52.47
2019-05-01T16:20:47.079Z,51.97
2019-05-01T16:23:15.963Z,46.83
2019-05-01T16:25:44.923Z,50.17
2019-05-01T16:28:13.873Z,48.40
2019-05-01T16:30:42.876Z,48.13
2019-05-01T16:33:11.831Z,48.80
2019-05-01T16:35:40.794Z,49.57
2019-05-01T16:38:22.671Z,48.90
2019-05-01T16:41:00.955Z,130.50
2019-05-01T16:46:18.670Z,988.63
2019-05-01T16:48:47.446Z,514.97
2019-05-01T16:51:16.342Z,532.83
2019-05-01T16:53:45.197Z,757.50
2019-05-01T16:56:14.249Z,999.90
2019-05-01T16:58:43.202Z,78.05
2019-05-01T17:01:34.501Z,46.75
2019-05-01T17:04:25.304Z,47.30
2019-05-01T17:07:00.835Z,47.87
2019-05-01T17:09:44.278Z,47.50
2019-05-01T17:12:14.464Z,47.03
2019-05-01T17:14:43.400Z,43.37
2019-05-01T17:17:15.362Z,44.20
2019-05-01T17:19:44.290Z,43.23
2019-05-01T17:22:14.434Z,42.60
2019-05-01T17:24:43.923Z,44.03
2019-05-01T17:27:12.830Z,43.90
2019-05-01T17:29:41.766Z,44.20
2019-05-01T17:32:12.300Z,45.33
2019-05-01T17:34:41.254Z,42.77
2019-05-01T17:37:10.259Z,43.67
2019-05-01T17:39:39.314Z,40.90
2019-05-01T17:42:08.405Z,41.97
2019-05-01T17:44:39.570Z,41.73
2019-05-01T17:47:08.070Z,41.10
2019-05-01T17:49:41.081Z,41.20
2019-05-01T17:52:07.866Z,42.17
2019-05-01T17:54:36.893Z,42.00
2019-05-01T17:57:05.894Z,42.30
2019-05-01T17:59:34.991Z,41.40
2019-05-01T18:02:15.680Z,42.80
2019-05-01T18:04:55.446Z,43.27
2019-05-01T18:07:28.894Z,43.30
2019-05-01T18:09:56.926Z,41.17
2019-05-01T18:12:28.575Z,40.90
2019-05-01T18:15:05.452Z,40.70
2019-05-01T18:17:34.310Z,40.37
2019-05-01T18:20:04.214Z,40.37
2019-05-01T18:23:08.466Z,41.80
2019-05-01T18:25:46.502Z,41.83
2019-05-01T18:28:32.387Z,44.80
2019-05-01T18:31:01.535Z,42.07
2019-05-01T18:33:30.498Z,42.40
2019-05-01T18:35:59.526Z,42.83
2019-05-01T18:38:34.102Z,42.50
2019-05-01T18:41:21.742Z,42.73
2019-05-01T18:43:51.030Z,41.90
2019-05-01T18:46:20.102Z,41.43
2019-05-01T18:48:48.994Z,41.67
2019-05-01T18:51:18.131Z,40.30
2019-05-01T18:53:47.381Z,40.27
2019-05-01T18:56:17.187Z,41.70
2019-05-01T18:58:46.553Z,41.27
2019-05-01T19:01:15.613Z,40.07
2019-05-01T19:03:44.441Z,39.40
2019-05-01T19:06:13.434Z,41.20
2019-05-01T19:08:42.726Z,42.37
2019-05-01T19:11:13.338Z,40.17
2019-05-01T19:13:42.641Z,40.80
2019-05-01T19:16:11.789Z,40.10
2019-05-01T19:18:41.429Z,39.73
2019-05-01T19:21:11.214Z,40.27
2019-05-01T19:23:41.084Z,43.33
2019-05-01T19:26:10.569Z,40.07
2019-05-01T19:28:39.497Z,41.10
2019-05-01T19:31:08.714Z,40.83
2019-05-01T19:33:37.759Z,41.23
2019-05-01T19:36:08.170Z,41.40
2019-05-01T19:38:37.459Z,40.40
2019-05-01T19:41:08.755Z,42.27
2019-05-01T19:43:40.552Z,40.70
2019-05-01T19:46:08.151Z,42.03
2019-05-01T19:48:37.161Z,40.03
2019-05-01T19:51:06.530Z,40.87
2019-05-01T19:53:35.479Z,39.53
2019-05-01T19:56:04.625Z,39.37
2019-05-01T19:58:33.646Z,39.90
2019-05-01T20:01:04.740Z,38.90
2019-05-01T20:03:36.114Z,40.03
2019-05-01T20:06:07.867Z,39.03
2019-05-01T20:08:36.331Z,42.23
2019-05-01T20:11:05.335Z,45.43
2019-05-01T20:13:34.399Z,43.67
2019-05-01T20:16:04.518Z,40.73
2019-05-01T20:18:33.558Z,40.17
2019-05-01T20:21:02.601Z,41.87
2019-05-01T20:23:33.195Z,41.83
2019-05-01T20:26:02.364Z,41.40
2019-05-01T20:28:31.252Z,42.13
2019-05-01T20:31:00.106Z,42.43
2019-05-01T20:33:33.451Z,43.03
2019-05-01T20:36:00.447Z,43.67
2019-05-01T20:38:30.666Z,42.27
2019-05-01T20:40:59.676Z,41.20
2019-05-01T20:43:28.631Z,41.10
2019-05-01T20:45:57.733Z,43.40
2019-05-01T20:48:26.790Z,44.20
2019-05-01T20:50:55.868Z,43.40
2019-05-01T20:53:24.818Z,41.30
2019-05-01T20:56:09.761Z,42.07
2019-05-01T20:58:38.714Z,40.83
2019-05-01T21:01:07.754Z,42.90
2019-05-01T21:03:38.562Z,42.63
2019-05-01T21:06:19.158Z,41.33
2019-05-01T21:09:13.924Z,40.93
2019-05-01T21:11:47.263Z,41.40
2019-05-01T21:14:22.435Z,41.00
2019-05-01T21:16:45.587Z,41.27
2019-05-01T21:19:14.838Z,39.83
2019-05-01T21:21:44.038Z,41.93
2019-05-01T21:24:13.993Z,43.07
2019-05-01T21:26:43.439Z,42.57
2019-05-01T21:29:14.062Z,44.73
2019-05-01T21:31:44.054Z,45.77
2019-05-01T21:34:14.468Z,44.77
2019-05-01T21:36:47.769Z,44.17
2019-05-01T21:39:15.000Z,45.50
2019-05-01T21:41:44.922Z,44.50
2019-05-01T21:44:13.875Z,45.60
2019-05-01T21:46:43.177Z,44.13
2019-05-01T21:49:12.965Z,43.73
2019-05-01T21:51:45.948Z,47.00
2019-05-01T21:54:15.952Z,47.70
2019-05-01T21:56:43.766Z,45.43
2019-05-01T21:59:12.667Z,46.77
2019-05-01T22:01:41.691Z,45.77
2019-05-01T22:04:10.592Z,45.20
2019-05-01T22:06:39.570Z,46.13
2019-05-01T22:09:15.159Z,44.43
2019-05-01T22:11:45.578Z,43.20
2019-05-01T22:14:21.282Z,44.80
2019-05-01T22:16:53.093Z,44.53
2019-05-01T22:19:21.397Z,43.90
2019-05-01T22:22:03.002Z,43.53
2019-05-01T22:24:56.982Z,46.70
2019-05-01T22:27:32.880Z,42.60
2019-05-01T22:30:10.805Z,43.67
2019-05-01T22:32:46.715Z,43.33
2019-05-01T22:35:18.463Z,42.53
2019-05-01T22:37:47.382Z,44.27
2019-05-01T22:40:19.083Z,44.57
2019-05-01T22:42:48.079Z,42.40
2019-05-01T22:45:22.372Z,44.83
2019-05-01T22:47:52.157Z,44.80
2019-05-01T22:50:21.495Z,45.27
2019-05-01T22:52:50.697Z,44.70
2019-05-01T22:55:20.358Z,42.87
2019-05-01T22:57:50.604Z,41.27
2019-05-01T23:00:41.231Z,42.23
2019-05-01T23:03:16.283Z,40.37
2019-05-01T23:05:45.361Z,44.27
2019-05-01T23:08:14.720Z,41.03
2019-05-01T23:10:46.878Z,41.90
2019-05-01T23:13:15.665Z,43.37
2019-05-01T23:15:44.783Z,42.77
2019-05-01T23:18:15.385Z,41.47
2019-05-01T23:20:44.600Z,41.67
2019-05-01T23:23:13.774Z,38.90
2019-05-01T23:25:42.804Z,40.70
2019-05-01T23:28:11.875Z,38.60
2019-05-01T23:30:40.901Z,41.87
2019-05-01T23:33:09.937Z,40.67
2019-05-01T23:35:38.897Z,40.07
2019-05-01T23:38:08.045Z,41.07
2019-05-01T23:40:37.100Z,40.77
2019-05-01T23:43:06.260Z,42.97
2019-05-01T23:45:35.807Z,45.00
2019-05-01T23:48:04.829Z,45.13
2019-05-01T23:50:34.013Z,42.10
2019-05-01T23:53:02.987Z,42.73
2019-05-01T23:55:32.156Z,44.23
2019-05-01T23:58:01.180Z,45.43
